sensor_id;sensor_type;location;lat;lon;timestamp;P1;durP1;ratioP1;P2;durP2;ratioP2
76094;SDS011;64821;13.710;100.604;2023-10-13T00:00:25;11.37;;;9.37;;
76094;SDS011;64821;13.710;100.604;2023-10-13T00:01:29;11.95;;;9.70;;
76094;SDS011;64821;13.710;100.604;2023-10-13T00:02:33;12.65;;;10.15;;
76094;SDS011;64821;13.710;100.604;2023-10-13T00:03:37;12.40;;;9.57;;
76094;SDS011;64821;13.710;100.604;2023-10-13T00:04:41;12.00;;;9.57;;
76094;SDS011;64821;13.710;100.604;2023-10-13T00:05:47;14.00;;;9.97;;
76094;SDS011;64821;13.710;100.604;2023-10-13T00:06:51;12.52;;;10.32;;
76094;SDS011;64821;13.710;100.604;2023-10-13T00:07:55;13.30;;;10.65;;
76094;SDS011;64821;13.710;100.604;2023-10-13T00:08:59;17.02;;;11.73;;
76094;SDS011;64821;13.710;100.604;2023-10-13T00:10:03;12.48;;;9.70;;
76094;SDS011;64821;13.710;100.604;2023-10-13T00:11:11;13.13;;;9.87;;
76094;SDS011;64821;13.710;100.604;2023-10-13T00:12:16;12.43;;;10.05;;
76094;SDS011;64821;13.710;100.604;2023-10-13T00:13:20;13.70;;;10.15;;
76094;SDS011;64821;13.710;100.604;2023-10-13T00:14:24;12.15;;;9.07;;
76094;SDS011;64821;13.710;100.604;2023-10-13T00:15:27;12.63;;;9.27;;
76094;SDS011;64821;13.710;100.604;2023-10-13T00:16:31;16.03;;;11.93;;
76094;SDS011;64821;13.710;100.604;2023-10-13T00:17:35;15.48;;;11.88;;
76094;SDS011;64821;13.710;100.604;2023-10-13T00:18:39;13.93;;;9.75;;
76094;SDS011;64821;13.710;100.604;2023-10-13T00:19:45;14.45;;;11.23;;
76094;SDS011;64821;13.710;100.604;2023-10-13T00:20:49;15.35;;;11.98;;
76094;SDS011;64821;13.710;100.604;2023-10-13T00:21:53;15.10;;;11.77;;
76094;SDS011;64821;13.710;100.604;2023-10-13T00:22:57;12.90;;;10.35;;
76094;SDS011;64821;13.710;100.604;2023-10-13T00:24:01;13.23;;;10.48;;
76094;SDS011;64821;13.710;100.604;2023-10-13T00:25:05;12.25;;;9.75;;
76094;SDS011;64821;13.710;100.604;2023-10-13T00:26:09;14.07;;;11.65;;
76094;SDS011;64821;13.710;100.604;2023-10-13T00:27:14;13.07;;;9.77;;
76094;SDS011;64821;13.710;100.604;2023-10-13T00:28:18;14.80;;;11.45;;
76094;SDS011;64821;13.710;100.604;2023-10-13T00:29:22;14.93;;;11.32;;
76094;SDS011;64821;13.710;100.604;2023-10-13T00:30:26;13.05;;;10.38;;
76094;SDS011;64821;13.710;100.604;2023-10-13T00:31:30;14.80;;;11.30;;
76094;SDS011;64821;13.710;100.604;2023-10-13T00:32:34;14.63;;;10.70;;
76094;SDS011;64821;13.710;100.604;2023-10-13T00:33:38;15.80;;;12.35;;
76094;SDS011;64821;13.710;100.604;2023-10-13T00:34:42;12.85;;;11.20;;
76094;SDS011;64821;13.710;100.604;2023-10-13T00:35:49;13.73;;;10.57;;
76094;SDS011;64821;13.710;100.604;2023-10-13T00:36:53;13.65;;;11.52;;
76094;SDS011;64821;13.710;100.604;2023-10-13T00:37:57;13.90;;;10.47;;
76094;SDS011;64821;13.710;100.604;2023-10-13T00:39:01;15.93;;;12.07;;
76094;SDS011;64821;13.710;100.604;2023-10-13T00:40:06;12.90;;;10.95;;
76094;SDS011;64821;13.710;100.604;2023-10-13T00:41:10;13.77;;;10.70;;
76094;SDS011;64821;13.710;100.604;2023-10-13T00:42:14;14.13;;;11.27;;
76094;SDS011;64821;13.710;100.604;2023-10-13T00:43:18;14.03;;;11.77;;
76094;SDS011;64821;13.710;100.604;2023-10-13T00:44:23;16.08;;;11.90;;
76094;SDS011;64821;13.710;100.604;2023-10-13T00:45:27;14.38;;;10.50;;
76094;SDS011;64821;13.710;100.604;2023-10-13T00:46:31;15.32;;;12.38;;
76094;SDS011;64821;13.710;100.604;2023-10-13T00:47:37;12.98;;;10.23;;
76094;SDS011;64821;13.710;100.604;2023-10-13T00:48:41;15.67;;;12.60;;
76094;SDS011;64821;13.710;100.604;2023-10-13T00:49:48;13.45;;;11.00;;
76094;SDS011;64821;13.710;100.604;2023-10-13T00:50:52;14.70;;;11.35;;
76094;SDS011;64821;13.710;100.604;2023-10-13T00:51:56;14.80;;;11.88;;
76094;SDS011;64821;13.710;100.604;2023-10-13T00:53:00;15.85;;;11.73;;
76094;SDS011;64821;13.710;100.604;2023-10-13T00:54:05;12.33;;;9.93;;
76094;SDS011;64821;13.710;100.604;2023-10-13T00:55:10;18.20;;;13.10;;
76094;SDS011;64821;13.710;100.604;2023-10-13T00:56:15;14.23;;;11.88;;
76094;SDS011;64821;13.710;100.604;2023-10-13T00:57:20;15.98;;;12.90;;
76094;SDS011;64821;13.710;100.604;2023-10-13T00:58:24;16.85;;;13.30;;
76094;SDS011;64821;13.710;100.604;2023-10-13T00:59:28;15.20;;;10.27;;
76094;SDS011;64821;13.710;100.604;2023-10-13T01:00:32;15.38;;;11.00;;
76094;SDS011;64821;13.710;100.604;2023-10-13T01:01:36;16.83;;;12.85;;
76094;SDS011;64821;13.710;100.604;2023-10-13T01:02:40;14.68;;;10.55;;
76094;SDS011;64821;13.710;100.604;2023-10-13T01:03:45;14.15;;;10.32;;
76094;SDS011;64821;13.710;100.604;2023-10-13T01:04:51;15.23;;;10.67;;
76094;SDS011;64821;13.710;100.604;2023-10-13T01:05:55;13.70;;;10.00;;
76094;SDS011;64821;13.710;100.604;2023-10-13T01:07:00;13.25;;;9.95;;
76094;SDS011;64821;13.710;100.604;2023-10-13T01:08:04;12.23;;;9.25;;
76094;SDS011;64821;13.710;100.604;2023-10-13T01:09:09;13.90;;;10.27;;
76094;SDS011;64821;13.710;100.604;2023-10-13T01:10:13;15.27;;;11.53;;
76094;SDS011;64821;13.710;100.604;2023-10-13T01:11:18;14.05;;;11.18;;
76094;SDS011;64821;13.710;100.604;2023-10-13T01:12:22;14.80;;;11.55;;
76094;SDS011;64821;13.710;100.604;2023-10-13T01:13:26;16.48;;;12.05;;
76094;SDS011;64821;13.710;100.604;2023-10-13T01:14:30;12.13;;;9.68;;
76094;SDS011;64821;13.710;100.604;2023-10-13T01:15:34;15.40;;;11.27;;
76094;SDS011;64821;13.710;100.604;2023-10-13T01:16:37;16.25;;;13.18;;
76094;SDS011;64821;13.710;100.604;2023-10-13T01:17:45;14.23;;;11.32;;
76094;SDS011;64821;13.710;100.604;2023-10-13T01:18:49;14.57;;;11.13;;
76094;SDS011;64821;13.710;100.604;2023-10-13T01:19:54;14.23;;;10.95;;
76094;SDS011;64821;13.710;100.604;2023-10-13T01:20:58;13.97;;;10.43;;
76094;SDS011;64821;13.710;100.604;2023-10-13T01:22:02;16.05;;;12.07;;
76094;SDS011;64821;13.710;100.604;2023-10-13T01:23:10;12.60;;;10.32;;
76094;SDS011;64821;13.710;100.604;2023-10-13T01:24:14;13.73;;;10.90;;
76094;SDS011;64821;13.710;100.604;2023-10-13T01:25:18;13.55;;;9.50;;
76094;SDS011;64821;13.710;100.604;2023-10-13T01:26:22;12.23;;;9.07;;
76094;SDS011;64821;13.710;100.604;2023-10-13T01:27:26;12.32;;;10.10;;
76094;SDS011;64821;13.710;100.604;2023-10-13T01:28:30;14.75;;;10.55;;
76094;SDS011;64821;13.710;100.604;2023-10-13T01:29:34;13.30;;;9.98;;
76094;SDS011;64821;13.710;100.604;2023-10-13T01:30:38;11.00;;;8.65;;
76094;SDS011;64821;13.710;100.604;2023-10-13T01:31:42;13.57;;;10.10;;
76094;SDS011;64821;13.710;100.604;2023-10-13T01:32:48;11.77;;;9.10;;
76094;SDS011;64821;13.710;100.604;2023-10-13T01:33:52;15.50;;;9.57;;
76094;SDS011;64821;13.710;100.604;2023-10-13T01:34:56;12.77;;;9.25;;
76094;SDS011;64821;13.710;100.604;2023-10-13T01:36:00;11.35;;;7.75;;
76094;SDS011;64821;13.710;100.604;2023-10-13T01:37:04;13.57;;;8.50;;
76094;SDS011;64821;13.710;100.604;2023-10-13T01:38:10;12.07;;;9.10;;
76094;SDS011;64821;13.710;100.604;2023-10-13T01:39:14;12.40;;;9.30;;
76094;SDS011;64821;13.710;100.604;2023-10-13T01:40:18;13.20;;;8.48;;
76094;SDS011;64821;13.710;100.604;2023-10-13T01:41:22;12.73;;;8.90;;
76094;SDS011;64821;13.710;100.604;2023-10-13T01:42:26;11.37;;;7.93;;
76094;SDS011;64821;13.710;100.604;2023-10-13T01:43:29;11.18;;;7.50;;
76094;SDS011;64821;13.710;100.604;2023-10-13T01:44:33;11.35;;;7.80;;
76094;SDS011;64821;13.710;100.604;2023-10-13T01:45:37;12.65;;;9.07;;
76094;SDS011;64821;13.710;100.604;2023-10-13T01:46:41;10.43;;;7.70;;
76094;SDS011;64821;13.710;100.604;2023-10-13T01:47:45;11.97;;;8.33;;
76094;SDS011;64821;13.710;100.604;2023-10-13T01:48:51;10.63;;;7.72;;
76094;SDS011;64821;13.710;100.604;2023-10-13T01:49:55;11.88;;;8.32;;
76094;SDS011;64821;13.710;100.604;2023-10-13T01:50:59;11.38;;;8.82;;
76094;SDS011;64821;13.710;100.604;2023-10-13T01:52:03;13.10;;;7.80;;
76094;SDS011;64821;13.710;100.604;2023-10-13T01:53:07;11.47;;;7.90;;
76094;SDS011;64821;13.710;100.604;2023-10-13T01:54:12;10.50;;;7.72;;
76094;SDS011;64821;13.710;100.604;2023-10-13T01:55:16;11.02;;;8.38;;
76094;SDS011;64821;13.710;100.604;2023-10-13T01:56:20;11.30;;;8.13;;
76094;SDS011;64821;13.710;100.604;2023-10-13T01:57:24;12.25;;;8.82;;
76094;SDS011;64821;13.710;100.604;2023-10-13T01:58:28;10.67;;;7.33;;
76094;SDS011;64821;13.710;100.604;2023-10-13T01:59:32;10.55;;;7.07;;
76094;SDS011;64821;13.710;100.604;2023-10-13T02:00:36;9.45;;;6.93;;
76094;SDS011;64821;13.710;100.604;2023-10-13T02:01:40;11.38;;;7.30;;
76094;SDS011;64821;13.710;100.604;2023-10-13T02:02:45;12.35;;;7.25;;
76094;SDS011;64821;13.710;100.604;2023-10-13T02:03:49;10.17;;;6.90;;
76094;SDS011;64821;13.710;100.604;2023-10-13T02:04:53;9.88;;;6.65;;
76094;SDS011;64821;13.710;100.604;2023-10-13T02:05:57;9.65;;;6.50;;
76094;SDS011;64821;13.710;100.604;2023-10-13T02:07:00;9.98;;;6.28;;
76094;SDS011;64821;13.710;100.604;2023-10-13T02:08:05;11.50;;;8.10;;
76094;SDS011;64821;13.710;100.604;2023-10-13T02:09:09;10.83;;;7.30;;
76094;SDS011;64821;13.710;100.604;2023-10-13T02:10:17;13.13;;;8.55;;
76094;SDS011;64821;13.710;100.604;2023-10-13T02:11:21;9.68;;;7.07;;
76094;SDS011;64821;13.710;100.604;2023-10-13T02:12:25;10.05;;;6.80;;
76094;SDS011;64821;13.710;100.604;2023-10-13T02:13:29;9.10;;;6.55;;
76094;SDS011;64821;13.710;100.604;2023-10-13T02:14:33;9.57;;;7.03;;
76094;SDS011;64821;13.710;100.604;2023-10-13T02:15:37;10.15;;;6.43;;
76094;SDS011;64821;13.710;100.604;2023-10-13T02:16:41;10.32;;;6.20;;
76094;SDS011;64821;13.710;100.604;2023-10-13T02:17:46;9.27;;;6.80;;
76094;SDS011;64821;13.710;100.604;2023-10-13T02:18:49;10.98;;;6.82;;
76094;SDS011;64821;13.710;100.604;2023-10-13T02:19:53;10.67;;;6.97;;
76094;SDS011;64821;13.710;100.604;2023-10-13T02:21:01;9.75;;;7.03;;
76094;SDS011;64821;13.710;100.604;2023-10-13T02:22:06;11.00;;;6.93;;
76094;SDS011;64821;13.710;100.604;2023-10-13T02:23:10;11.65;;;7.50;;
76094;SDS011;64821;13.710;100.604;2023-10-13T02:24:14;10.10;;;6.68;;
76094;SDS011;64821;13.710;100.604;2023-10-13T02:25:20;9.50;;;6.93;;
76094;SDS011;64821;13.710;100.604;2023-10-13T02:26:24;11.02;;;6.95;;
76094;SDS011;64821;13.710;100.604;2023-10-13T02:27:28;10.20;;;6.68;;
76094;SDS011;64821;13.710;100.604;2023-10-13T02:28:32;9.93;;;6.35;;
76094;SDS011;64821;13.710;100.604;2023-10-13T02:29:36;10.63;;;6.80;;
76094;SDS011;64821;13.710;100.604;2023-10-13T02:30:40;10.87;;;6.70;;
76094;SDS011;64821;13.710;100.604;2023-10-13T02:31:44;10.10;;;6.60;;
76094;SDS011;64821;13.710;100.604;2023-10-13T02:32:48;9.05;;;6.43;;
76094;SDS011;64821;13.710;100.604;2023-10-13T02:33:52;9.52;;;6.25;;
76094;SDS011;64821;13.710;100.604;2023-10-13T02:34:56;11.82;;;7.82;;
76094;SDS011;64821;13.710;100.604;2023-10-13T02:36:00;9.10;;;6.27;;
76094;SDS011;64821;13.710;100.604;2023-10-13T02:37:05;11.43;;;7.00;;
76094;SDS011;64821;13.710;100.604;2023-10-13T02:38:09;10.27;;;6.43;;
76094;SDS011;64821;13.710;100.604;2023-10-13T02:39:13;10.35;;;6.45;;
76094;SDS011;64821;13.710;100.604;2023-10-13T02:40:19;8.80;;;6.45;;
76094;SDS011;64821;13.710;100.604;2023-10-13T02:41:23;10.33;;;7.47;;
76094;SDS011;64821;13.710;100.604;2023-10-13T02:42:27;11.35;;;6.93;;
76094;SDS011;64821;13.710;100.604;2023-10-13T02:43:31;10.85;;;6.78;;
76094;SDS011;64821;13.710;100.604;2023-10-13T02:44:36;9.25;;;6.50;;
76094;SDS011;64821;13.710;100.604;2023-10-13T02:45:40;9.73;;;6.85;;
76094;SDS011;64821;13.710;100.604;2023-10-13T02:46:44;11.20;;;7.87;;
76094;SDS011;64821;13.710;100.604;2023-10-13T02:47:48;10.95;;;7.03;;
76094;SDS011;64821;13.710;100.604;2023-10-13T02:48:52;9.45;;;6.70;;
76094;SDS011;64821;13.710;100.604;2023-10-13T02:49:56;9.55;;;6.85;;
76094;SDS011;64821;13.710;100.604;2023-10-13T02:51:00;10.55;;;7.20;;
76094;SDS011;64821;13.710;100.604;2023-10-13T02:52:04;9.47;;;7.00;;
76094;SDS011;64821;13.710;100.604;2023-10-13T02:53:08;9.35;;;6.82;;
76094;SDS011;64821;13.710;100.604;2023-10-13T02:54:12;9.70;;;7.18;;
76094;SDS011;64821;13.710;100.604;2023-10-13T02:55:16;9.88;;;7.47;;
76094;SDS011;64821;13.710;100.604;2023-10-13T02:56:21;9.15;;;7.10;;
76094;SDS011;64821;13.710;100.604;2023-10-13T02:57:25;9.93;;;7.87;;
76094;SDS011;64821;13.710;100.604;2023-10-13T02:58:29;10.23;;;7.28;;
76094;SDS011;64821;13.710;100.604;2023-10-13T02:59:33;10.38;;;7.65;;
76094;SDS011;64821;13.710;100.604;2023-10-13T03:00:37;10.88;;;8.35;;
76094;SDS011;64821;13.710;100.604;2023-10-13T03:01:41;10.63;;;7.75;;
76094;SDS011;64821;13.710;100.604;2023-10-13T03:02:45;10.73;;;8.27;;
76094;SDS011;64821;13.710;100.604;2023-10-13T03:03:50;12.43;;;8.77;;
76094;SDS011;64821;13.710;100.604;2023-10-13T03:04:54;10.98;;;8.05;;
76094;SDS011;64821;13.710;100.604;2023-10-13T03:06:00;11.52;;;8.27;;
76094;SDS011;64821;13.710;100.604;2023-10-13T03:07:04;11.65;;;8.00;;
76094;SDS011;64821;13.710;100.604;2023-10-13T03:08:11;11.53;;;8.47;;
76094;SDS011;64821;13.710;100.604;2023-10-13T03:09:15;10.52;;;7.88;;
76094;SDS011;64821;13.710;100.604;2023-10-13T03:10:19;11.60;;;7.65;;
76094;SDS011;64821;13.710;100.604;2023-10-13T03:11:25;11.57;;;7.85;;
76094;SDS011;64821;13.710;100.604;2023-10-13T03:12:28;11.23;;;8.30;;
76094;SDS011;64821;13.710;100.604;2023-10-13T03:13:32;11.23;;;8.33;;
76094;SDS011;64821;13.710;100.604;2023-10-13T03:14:36;10.68;;;8.40;;
76094;SDS011;64821;13.710;100.604;2023-10-13T03:15:40;11.15;;;8.13;;
76094;SDS011;64821;13.710;100.604;2023-10-13T03:16:47;10.50;;;8.40;;
76094;SDS011;64821;13.710;100.604;2023-10-13T03:17:51;9.57;;;7.25;;
76094;SDS011;64821;13.710;100.604;2023-10-13T03:18:55;9.70;;;7.33;;
76094;SDS011;64821;13.710;100.604;2023-10-13T03:19:59;11.60;;;8.20;;
76094;SDS011;64821;13.710;100.604;2023-10-13T03:21:03;10.10;;;7.65;;
76094;SDS011;64821;13.710;100.604;2023-10-13T03:22:08;12.55;;;8.52;;
76094;SDS011;64821;13.710;100.604;2023-10-13T03:23:14;9.73;;;7.68;;
76094;SDS011;64821;13.710;100.604;2023-10-13T03:24:17;11.93;;;7.80;;
76094;SDS011;64821;13.710;100.604;2023-10-13T03:25:21;11.30;;;8.45;;
76094;SDS011;64821;13.710;100.604;2023-10-13T03:26:27;10.00;;;7.82;;
76094;SDS011;64821;13.710;100.604;2023-10-13T03:27:31;11.00;;;7.80;;
76094;SDS011;64821;13.710;100.604;2023-10-13T03:28:35;11.57;;;8.93;;
76094;SDS011;64821;13.710;100.604;2023-10-13T03:29:39;12.40;;;8.97;;
76094;SDS011;64821;13.710;100.604;2023-10-13T03:30:43;11.13;;;8.40;;
76094;SDS011;64821;13.710;100.604;2023-10-13T03:31:47;10.50;;;8.55;;
76094;SDS011;64821;13.710;100.604;2023-10-13T03:32:51;13.52;;;8.40;;
76094;SDS011;64821;13.710;100.604;2023-10-13T03:33:55;10.90;;;9.10;;
76094;SDS011;64821;13.710;100.604;2023-10-13T03:34:59;10.83;;;8.43;;
76094;SDS011;64821;13.710;100.604;2023-10-13T03:36:03;10.18;;;8.35;;
76094;SDS011;64821;13.710;100.604;2023-10-13T03:37:07;11.00;;;8.23;;
76094;SDS011;64821;13.710;100.604;2023-10-13T03:38:11;10.88;;;8.45;;
76094;SDS011;64821;13.710;100.604;2023-10-13T03:39:15;11.93;;;8.40;;
76094;SDS011;64821;13.710;100.604;2023-10-13T03:40:19;12.00;;;8.43;;
76094;SDS011;64821;13.710;100.604;2023-10-13T03:41:24;10.88;;;8.20;;
76094;SDS011;64821;13.710;100.604;2023-10-13T03:42:30;12.15;;;8.50;;
76094;SDS011;64821;13.710;100.604;2023-10-13T03:43:35;10.98;;;8.68;;
76094;SDS011;64821;13.710;100.604;2023-10-13T03:44:39;10.02;;;7.88;;
76094;SDS011;64821;13.710;100.604;2023-10-13T03:45:43;11.53;;;8.00;;
76094;SDS011;64821;13.710;100.604;2023-10-13T03:46:48;11.68;;;8.40;;
76094;SDS011;64821;13.710;100.604;2023-10-13T03:47:52;10.35;;;8.02;;
76094;SDS011;64821;13.710;100.604;2023-10-13T03:48:56;11.70;;;8.93;;
76094;SDS011;64821;13.710;100.604;2023-10-13T03:50:00;10.45;;;8.52;;
76094;SDS011;64821;13.710;100.604;2023-10-13T03:51:04;10.33;;;8.93;;
76094;SDS011;64821;13.710;100.604;2023-10-13T03:52:08;10.50;;;8.27;;
76094;SDS011;64821;13.710;100.604;2023-10-13T03:53:12;11.18;;;8.55;;
76094;SDS011;64821;13.710;100.604;2023-10-13T03:54:16;11.25;;;7.90;;
76094;SDS011;64821;13.710;100.604;2023-10-13T03:55:20;11.25;;;8.50;;
76094;SDS011;64821;13.710;100.604;2023-10-13T03:56:24;12.47;;;9.33;;
76094;SDS011;64821;13.710;100.604;2023-10-13T03:57:34;12.90;;;9.23;;
76094;SDS011;64821;13.710;100.604;2023-10-13T03:58:38;11.18;;;8.50;;
76094;SDS011;64821;13.710;100.604;2023-10-13T03:59:43;11.25;;;8.77;;
76094;SDS011;64821;13.710;100.604;2023-10-13T04:00:47;12.15;;;9.88;;
76094;SDS011;64821;13.710;100.604;2023-10-13T04:01:50;10.70;;;8.70;;
76094;SDS011;64821;13.710;100.604;2023-10-13T04:02:55;11.15;;;9.07;;
76094;SDS011;64821;13.710;100.604;2023-10-13T04:03:59;11.57;;;8.52;;
76094;SDS011;64821;13.710;100.604;2023-10-13T04:05:03;13.00;;;9.45;;
76094;SDS011;64821;13.710;100.604;2023-10-13T04:06:07;11.52;;;8.15;;
76094;SDS011;64821;13.710;100.604;2023-10-13T04:07:11;11.47;;;7.97;;
76094;SDS011;64821;13.710;100.604;2023-10-13T04:08:15;11.00;;;7.85;;
76094;SDS011;64821;13.710;100.604;2023-10-13T04:09:20;11.02;;;8.50;;
76094;SDS011;64821;13.710;100.604;2023-10-13T04:10:25;9.93;;;8.00;;
76094;SDS011;64821;13.710;100.604;2023-10-13T04:11:30;9.63;;;7.85;;
76094;SDS011;64821;13.710;100.604;2023-10-13T04:12:34;10.73;;;8.10;;
76094;SDS011;64821;13.710;100.604;2023-10-13T04:13:38;10.75;;;8.15;;
76094;SDS011;64821;13.710;100.604;2023-10-13T04:14:43;9.70;;;7.88;;
76094;SDS011;64821;13.710;100.604;2023-10-13T04:15:47;11.25;;;8.20;;
76094;SDS011;64821;13.710;100.604;2023-10-13T04:16:51;10.50;;;8.40;;
76094;SDS011;64821;13.710;100.604;2023-10-13T04:17:55;11.23;;;8.80;;
76094;SDS011;64821;13.710;100.604;2023-10-13T04:18:59;11.00;;;8.13;;
76094;SDS011;64821;13.710;100.604;2023-10-13T04:20:03;10.73;;;8.38;;
76094;SDS011;64821;13.710;100.604;2023-10-13T04:21:07;11.05;;;9.00;;
76094;SDS011;64821;13.710;100.604;2023-10-13T04:22:11;10.60;;;8.90;;
76094;SDS011;64821;13.710;100.604;2023-10-13T04:23:15;10.23;;;8.00;;
76094;SDS011;64821;13.710;100.604;2023-10-13T04:24:19;10.05;;;8.27;;
76094;SDS011;64821;13.710;100.604;2023-10-13T04:25:23;10.70;;;7.97;;
76094;SDS011;64821;13.710;100.604;2023-10-13T04:26:30;10.88;;;8.10;;
76094;SDS011;64821;13.710;100.604;2023-10-13T04:27:37;10.30;;;8.43;;
76094;SDS011;64821;13.710;100.604;2023-10-13T04:28:41;9.73;;;7.60;;
76094;SDS011;64821;13.710;100.604;2023-10-13T04:29:45;9.70;;;7.55;;
76094;SDS011;64821;13.710;100.604;2023-10-13T04:30:49;10.23;;;7.82;;
76094;SDS011;64821;13.710;100.604;2023-10-13T04:31:55;9.60;;;7.25;;
76094;SDS011;64821;13.710;100.604;2023-10-13T04:32:59;10.00;;;7.82;;
76094;SDS011;64821;13.710;100.604;2023-10-13T04:34:03;11.73;;;7.97;;
76094;SDS011;64821;13.710;100.604;2023-10-13T04:35:07;10.05;;;7.70;;
76094;SDS011;64821;13.710;100.604;2023-10-13T04:36:12;10.85;;;8.07;;
76094;SDS011;64821;13.710;100.604;2023-10-13T04:37:16;9.50;;;7.57;;
76094;SDS011;64821;13.710;100.604;2023-10-13T04:38:20;10.18;;;7.15;;
76094;SDS011;64821;13.710;100.604;2023-10-13T04:39:24;10.20;;;7.73;;
76094;SDS011;64821;13.710;100.604;2023-10-13T04:40:28;9.95;;;7.60;;
76094;SDS011;64821;13.710;100.604;2023-10-13T04:41:35;9.45;;;7.65;;
76094;SDS011;64821;13.710;100.604;2023-10-13T04:42:40;10.45;;;7.50;;
76094;SDS011;64821;13.710;100.604;2023-10-13T04:43:44;9.95;;;7.15;;
76094;SDS011;64821;13.710;100.604;2023-10-13T04:44:48;9.63;;;7.10;;
76094;SDS011;64821;13.710;100.604;2023-10-13T04:45:52;10.05;;;7.40;;
76094;SDS011;64821;13.710;100.604;2023-10-13T04:46:57;10.43;;;7.55;;
76094;SDS011;64821;13.710;100.604;2023-10-13T04:48:02;10.40;;;7.50;;
76094;SDS011;64821;13.710;100.604;2023-10-13T04:49:07;10.13;;;7.75;;
76094;SDS011;64821;13.710;100.604;2023-10-13T04:50:11;10.80;;;7.87;;
76094;SDS011;64821;13.710;100.604;2023-10-13T04:51:15;10.65;;;7.97;;
76094;SDS011;64821;13.710;100.604;2023-10-13T04:52:18;9.82;;;7.57;;
76094;SDS011;64821;13.710;100.604;2023-10-13T04:53:22;10.77;;;7.75;;
76094;SDS011;64821;13.710;100.604;2023-10-13T04:54:26;11.10;;;7.93;;
76094;SDS011;64821;13.710;100.604;2023-10-13T04:55:33;9.77;;;7.47;;
76094;SDS011;64821;13.710;100.604;2023-10-13T04:56:39;11.38;;;8.32;;
76094;SDS011;64821;13.710;100.604;2023-10-13T04:57:43;9.45;;;7.03;;
76094;SDS011;64821;13.710;100.604;2023-10-13T04:58:47;11.02;;;7.50;;
76094;SDS011;64821;13.710;100.604;2023-10-13T04:59:51;9.45;;;7.50;;
76094;SDS011;64821;13.710;100.604;2023-10-13T05:00:59;9.27;;;7.10;;
76094;SDS011;64821;13.710;100.604;2023-10-13T05:02:03;10.95;;;7.40;;
76094;SDS011;64821;13.710;100.604;2023-10-13T05:03:07;10.23;;;7.13;;
76094;SDS011;64821;13.710;100.604;2023-10-13T05:04:11;10.68;;;7.50;;
76094;SDS011;64821;13.710;100.604;2023-10-13T05:05:15;10.23;;;7.07;;
76094;SDS011;64821;13.710;100.604;2023-10-13T05:06:19;9.70;;;7.20;;
76094;SDS011;64821;13.710;100.604;2023-10-13T05:07:23;9.68;;;7.25;;
76094;SDS011;64821;13.710;100.604;2023-10-13T05:08:27;10.38;;;7.30;;
76094;SDS011;64821;13.710;100.604;2023-10-13T05:09:31;10.02;;;7.28;;
76094;SDS011;64821;13.710;100.604;2023-10-13T05:10:35;9.95;;;7.00;;
76094;SDS011;64821;13.710;100.604;2023-10-13T05:11:41;8.90;;;6.70;;
76094;SDS011;64821;13.710;100.604;2023-10-13T05:12:45;10.48;;;7.15;;
76094;SDS011;64821;13.710;100.604;2023-10-13T05:13:49;9.48;;;6.80;;
76094;SDS011;64821;13.710;100.604;2023-10-13T05:14:53;9.20;;;7.20;;
76094;SDS011;64821;13.710;100.604;2023-10-13T05:15:57;8.95;;;6.50;;
76094;SDS011;64821;13.710;100.604;2023-10-13T05:17:01;9.63;;;7.27;;
76094;SDS011;64821;13.710;100.604;2023-10-13T05:18:05;9.60;;;6.80;;
76094;SDS011;64821;13.710;100.604;2023-10-13T05:19:12;10.00;;;7.38;;
76094;SDS011;64821;13.710;100.604;2023-10-13T05:20:16;9.45;;;6.55;;
76094;SDS011;64821;13.710;100.604;2023-10-13T05:21:20;8.90;;;6.38;;
76094;SDS011;64821;13.710;100.604;2023-10-13T05:22:24;8.97;;;6.40;;
76094;SDS011;64821;13.710;100.604;2023-10-13T05:23:28;8.77;;;5.82;;
76094;SDS011;64821;13.710;100.604;2023-10-13T05:24:32;9.75;;;5.97;;
76094;SDS011;64821;13.710;100.604;2023-10-13T05:25:36;8.50;;;6.10;;
76094;SDS011;64821;13.710;100.604;2023-10-13T05:26:41;7.90;;;6.10;;
76094;SDS011;64821;13.710;100.604;2023-10-13T05:27:45;7.90;;;5.83;;
76094;SDS011;64821;13.710;100.604;2023-10-13T05:28:49;9.32;;;6.30;;
76094;SDS011;64821;13.710;100.604;2023-10-13T05:29:53;9.10;;;6.03;;
76094;SDS011;64821;13.710;100.604;2023-10-13T05:30:58;9.60;;;6.00;;
76094;SDS011;64821;13.710;100.604;2023-10-13T05:32:02;10.63;;;6.07;;
76094;SDS011;64821;13.710;100.604;2023-10-13T05:33:07;10.00;;;6.67;;
76094;SDS011;64821;13.710;100.604;2023-10-13T05:34:11;8.93;;;6.60;;
76094;SDS011;64821;13.710;100.604;2023-10-13T05:35:15;9.65;;;6.05;;
76094;SDS011;64821;13.710;100.604;2023-10-13T05:36:26;9.05;;;6.40;;
76094;SDS011;64821;13.710;100.604;2023-10-13T05:37:30;8.27;;;6.30;;
76094;SDS011;64821;13.710;100.604;2023-10-13T05:38:37;8.43;;;6.07;;
76094;SDS011;64821;13.710;100.604;2023-10-13T05:39:41;8.32;;;5.70;;
76094;SDS011;64821;13.710;100.604;2023-10-13T05:40:51;9.55;;;6.25;;
76094;SDS011;64821;13.710;100.604;2023-10-13T05:41:57;9.00;;;5.90;;
76094;SDS011;64821;13.710;100.604;2023-10-13T05:43:01;9.55;;;6.10;;
76094;SDS011;64821;13.710;100.604;2023-10-13T05:44:05;8.57;;;5.83;;
76094;SDS011;64821;13.710;100.604;2023-10-13T05:45:09;8.38;;;5.80;;
76094;SDS011;64821;13.710;100.604;2023-10-13T05:46:13;7.97;;;6.00;;
76094;SDS011;64821;13.710;100.604;2023-10-13T05:47:17;8.30;;;5.93;;
76094;SDS011;64821;13.710;100.604;2023-10-13T05:48:21;8.45;;;5.68;;
76094;SDS011;64821;13.710;100.604;2023-10-13T05:49:25;8.30;;;6.00;;
76094;SDS011;64821;13.710;100.604;2023-10-13T05:50:29;8.30;;;5.60;;
76094;SDS011;64821;13.710;100.604;2023-10-13T05:51:33;8.57;;;5.82;;
76094;SDS011;64821;13.710;100.604;2023-10-13T05:52:37;9.10;;;5.82;;
76094;SDS011;64821;13.710;100.604;2023-10-13T05:53:41;8.73;;;5.50;;
76094;SDS011;64821;13.710;100.604;2023-10-13T05:54:45;7.83;;;5.20;;
76094;SDS011;64821;13.710;100.604;2023-10-13T05:55:50;7.70;;;5.50;;
76094;SDS011;64821;13.710;100.604;2023-10-13T05:56:54;8.75;;;5.57;;
76094;SDS011;64821;13.710;100.604;2023-10-13T05:57:59;7.75;;;4.85;;
76094;SDS011;64821;13.710;100.604;2023-10-13T05:59:03;8.20;;;5.25;;
76094;SDS011;64821;13.710;100.604;2023-10-13T06:00:08;9.03;;;5.67;;
76094;SDS011;64821;13.710;100.604;2023-10-13T06:01:12;7.97;;;5.68;;
76094;SDS011;64821;13.710;100.604;2023-10-13T06:02:17;8.40;;;5.68;;
76094;SDS011;64821;13.710;100.604;2023-10-13T06:03:22;7.70;;;5.13;;
76094;SDS011;64821;13.710;100.604;2023-10-13T06:04:27;7.55;;;5.38;;
76094;SDS011;64821;13.710;100.604;2023-10-13T06:05:31;7.70;;;5.33;;
76094;SDS011;64821;13.710;100.604;2023-10-13T06:06:35;8.65;;;5.60;;
76094;SDS011;64821;13.710;100.604;2023-10-13T06:07:39;8.73;;;5.78;;
76094;SDS011;64821;13.710;100.604;2023-10-13T06:08:43;8.05;;;5.28;;
76094;SDS011;64821;13.710;100.604;2023-10-13T06:09:47;8.57;;;5.30;;
76094;SDS011;64821;13.710;100.604;2023-10-13T06:11:00;8.83;;;5.20;;
76094;SDS011;64821;13.710;100.604;2023-10-13T06:12:04;8.52;;;5.30;;